createdAt,value
2018-03-07T00:00:15.183Z,53.3
2018-03-07T00:01:04.974Z,53.3
2018-03-07T00:01:55.341Z,53.2
2018-03-07T00:02:45.349Z,53.2
2018-03-07T00:03:35.417Z,53.2
2018-03-07T00:04:25.217Z,53.2
2018-03-07T00:05:14.684Z,53.2
2018-03-07T00:06:05.360Z,53.2
2018-03-07T00:06:55.071Z,53.2
2018-03-07T00:07:45.189Z,53.1
2018-03-07T00:08:35.483Z,53.2
2018-03-07T00:09:24.998Z,53.1
2018-03-07T00:10:15.902Z,53.1
2018-03-07T00:11:05.972Z,53.1
2018-03-07T00:11:55.981Z,53.1
2018-03-07T00:12:45.786Z,53.1
2018-03-07T00:13:35.262Z,53.1
2018-03-07T00:14:26.206Z,53.1
2018-03-07T00:15:15.379Z,53.1
2018-03-07T00:16:06.283Z,53.1
2018-03-07T00:16:56.058Z,53.1
2018-03-07T00:17:46.117Z,53.1
2018-03-07T00:18:35.623Z,53.1
2018-03-07T00:19:25.665Z,53.1
2018-03-07T00:20:16.071Z,53.1
2018-03-07T00:21:06.624Z,53.1
2018-03-07T00:21:56.233Z,53
2018-03-07T00:22:46.738Z,53
2018-03-07T00:23:36.912Z,53
2018-03-07T00:24:26.298Z,53
2018-03-07T00:25:16.912Z,53
2018-03-07T00:26:06.967Z,53
2018-03-07T00:26:57.022Z,53
2018-03-07T00:27:46.535Z,53
2018-03-07T00:28:36.850Z,53
2018-03-07T00:29:27.199Z,52.9
2018-03-07T00:30:16.961Z,52.9
2018-03-07T00:31:07.294Z,52.9
2018-03-07T00:31:57.372Z,52.9
2018-03-07T00:32:46.869Z,52.9
2018-03-07T00:33:37.497Z,52.9
2018-03-07T00:34:26.467Z,52.9
2018-03-07T00:35:17.586Z,52.9
2018-03-07T00:36:07.355Z,52.9
2018-03-07T00:36:57.429Z,52.9
2018-03-07T00:37:47.734Z,52.9
2018-03-07T00:38:37.814Z,52.9
2018-03-07T00:39:27.721Z,52.9
2018-03-07T00:40:17.915Z,52.9
2018-03-07T00:41:06.960Z,52.8
2018-03-07T00:41:57.526Z,52.8
2018-03-07T00:42:47.608Z,52.8
2018-03-07T00:43:36.562Z,52.8
2018-03-07T00:44:27.016Z,52.8
2018-03-07T00:45:17.073Z,52.8
2018-03-07T00:46:06.819Z,52.8
2018-03-07T00:46:56.990Z,52.8
2018-03-07T00:47:47.689Z,52.8
2018-03-07T00:48:36.987Z,52.8
2018-03-07T00:49:27.358Z,52.8
2018-03-07T00:50:16.511Z,52.8
2018-03-07T00:51:06.779Z,52.8
2018-03-07T00:51:56.971Z,52.8
2018-03-07T00:52:48.085Z,52.8
2018-03-07T00:53:37.141Z,52.8
2018-03-07T00:54:27.488Z,52.8
2018-03-07T00:55:17.953Z,52.7
2018-03-07T00:56:08.264Z,52.8
2018-03-07T00:56:58.609Z,52.7
2018-03-07T00:57:48.120Z,52.7
2018-03-07T00:58:38.471Z,52.7
2018-03-07T00:59:28.489Z,52.7
2018-03-07T01:00:18.545Z,52.7
2018-03-07T01:01:08.873Z,52.7
2018-03-07T01:01:58.398Z,52.7
2018-03-07T01:02:48.735Z,52.7
2018-03-07T01:03:38.755Z,52.6
2018-03-07T01:04:29.151Z,52.6
2018-03-07T01:05:18.914Z,52.6
2018-03-07T01:06:09.242Z,52.6
2018-03-07T01:06:59.561Z,52.6
2018-03-07T01:07:49.037Z,52.6
2018-03-07T01:08:39.401Z,52.6
2018-03-07T01:09:29.393Z,52.6
2018-03-07T01:10:19.252Z,52.6
2018-03-07T01:11:09.294Z,52.6
2018-03-07T01:11:59.652Z,52.6
2018-03-07T01:12:49.588Z,52.6
2018-03-07T01:13:40.048Z,52.6
2018-03-07T01:14:29.757Z,52.6
2018-03-07T01:15:19.883Z,52.6
2018-03-07T01:16:09.820Z,52.6
2018-03-07T01:17:00.189Z,52.6
2018-03-07T01:17:49.473Z,52.5
2018-03-07T01:18:40.322Z,52.5
2018-03-07T01:19:30.434Z,52.5
2018-03-07T01:20:20.692Z,52.5
2018-03-07T01:21:10.475Z,52.4
2018-03-07T01:22:00.529Z,52.5
2018-03-07T01:22:50.282Z,52.5
2018-03-07T01:23:40.630Z,52.4
2018-03-07T01:24:30.754Z,52.4
2018-03-07T01:25:20.784Z,52.4
2018-03-07T01:26:10.837Z,52.4
2018-03-07T01:27:01.187Z,52.4
2018-03-07T01:27:49.771Z,52.4
2018-03-07T01:28:40.684Z,52.4
2018-03-07T01:29:30.479Z,52.4
2018-03-07T01:30:21.112Z,52.4
2018-03-07T01:37:01.550Z,52.3
2018-03-07T01:37:51.928Z,52.3
2018-03-07T01:38:41.979Z,52.3
2018-03-07T01:39:31.747Z,52.3
2018-03-07T01:40:21.781Z,52.3
2018-03-07T01:41:11.556Z,52.3
2018-03-07T01:42:01.905Z,52.3
2018-03-07T01:42:51.675Z,52.3
2018-03-07T01:43:41.435Z,52.3
2018-03-07T01:44:32.346Z,52.3
2018-03-07T01:45:21.856Z,52.3
2018-03-07T01:46:12.490Z,52.3
2018-03-07T01:47:02.052Z,52.3
2018-03-07T01:47:52.342Z,52.3
2018-03-07T01:48:42.648Z,52.3
2018-03-07T01:49:32.155Z,52.2
2018-03-07T01:50:22.753Z,52.3
2018-03-07T01:51:12.268Z,52.3
2018-03-07T01:52:02.859Z,52.3
2018-03-07T01:52:52.056Z,52.2
2018-03-07T01:53:42.426Z,52.2
2018-03-07T01:54:32.755Z,52.2
2018-03-07T01:55:23.103Z,52.2
2018-03-07T01:56:12.590Z,52.1
2018-03-07T01:57:02.657Z,52.2
2018-03-07T01:57:53.271Z,52.1
2018-03-07T01:58:43.320Z,52.2
2018-03-07T01:59:32.818Z,52.1
2018-03-07T02:00:23.186Z,52.1
2018-03-07T02:01:13.495Z,52.1
2018-03-07T02:02:02.983Z,52.1
2018-03-07T02:02:53.352Z,52.1
2018-03-07T02:03:43.425Z,52.1
2018-03-07T02:04:33.166Z,52.1
2018-03-07T02:05:23.202Z,52.1
2018-03-07T02:06:13.317Z,52.1
2018-03-07T02:07:02.759Z,52.1
2018-03-07T02:07:52.849Z,52.1
2018-03-07T02:08:43.493Z,52.1
2018-03-07T02:09:33.821Z,52.1
2018-03-07T02:10:23.865Z,52.1
2018-03-07T02:11:13.920Z,52.1
2018-03-07T02:12:03.972Z,52.1
2018-03-07T02:12:52.701Z,52
2018-03-07T02:13:43.904Z,52
2018-03-07T02:14:33.791Z,52
2018-03-07T02:15:23.763Z,52
2018-03-07T02:16:13.739Z,52
2018-03-07T02:17:03.853Z,52
2018-03-07T02:17:53.423Z,52
2018-03-07T02:18:43.863Z,52
2018-03-07T02:19:33.721Z,52
2018-03-07T02:27:54.333Z,51.9
2018-03-07T02:28:43.975Z,51.9
2018-03-07T02:29:34.620Z,51.9
2018-03-07T02:30:24.288Z,51.9
2018-03-07T02:31:15.037Z,51.9
2018-03-07T02:32:04.817Z,51.9
2018-03-07T02:32:54.880Z,51.9
2018-03-07T02:33:44.819Z,51.8
2018-03-07T02:34:34.491Z,51.8
2018-03-07T02:35:25.310Z,51.8
2018-03-07T02:36:14.888Z,51.8
2018-03-07T02:37:05.499Z,51.8
2018-03-07T02:37:54.136Z,51.8
2018-03-07T02:38:44.861Z,51.8
2018-03-07T02:39:35.213Z,51.8
2018-03-07T02:40:25.182Z,51.8
2018-03-07T02:41:15.229Z,51.8
2018-03-07T02:42:04.729Z,51.8
2018-03-07T02:42:54.849Z,51.8
2018-03-07T02:43:46.275Z,51.8
2018-03-07T02:44:34.967Z,51.8
2018-03-07T02:45:26.039Z,51.8
2018-03-07T02:46:15.515Z,51.8
2018-03-07T02:47:05.874Z,51.8
2018-03-07T02:47:56.477Z,51.8
2018-03-07T02:48:46.521Z,51.7
2018-03-07T02:49:36.297Z,51.7
2018-03-07T02:50:26.615Z,51.7
2018-03-07T02:51:16.956Z,51.7
2018-03-07T02:52:07.052Z,51.7
2018-03-07T02:52:56.815Z,51.7
2018-03-07T02:53:46.556Z,51.7
2018-03-07T02:54:37.199Z,51.7
2018-03-07T02:55:26.752Z,51.7
2018-03-07T02:56:17.042Z,51.7
2018-03-07T02:57:06.786Z,51.7
2018-03-07T02:57:56.641Z,51.6
2018-03-07T02:58:46.895Z,51.6
2018-03-07T02:59:37.232Z,51.6
2018-03-07T03:00:27.317Z,51.6
2018-03-07T03:01:17.369Z,51.6
2018-03-07T03:02:07.424Z,51.6
2018-03-07T03:02:57.214Z,51.6
2018-03-07T03:03:47.303Z,51.6
2018-03-07T03:04:37.878Z,51.6
2018-03-07T03:05:27.970Z,51.6
2018-03-07T03:06:17.156Z,51.6
2018-03-07T03:07:07.201Z,51.6
2018-03-07T03:07:57.827Z,51.6
2018-03-07T03:08:47.628Z,51.6
2018-03-07T03:09:38.171Z,51.6
2018-03-07T03:10:28.002Z,51.6
2018-03-07T03:11:18.025Z,51.6
2018-03-07T03:12:08.093Z,51.5
2018-03-07T03:12:58.152Z,51.5
2018-03-07T03:13:47.657Z,51.5
2018-03-07T03:14:38.266Z,51.5
2018-03-07T03:15:28.320Z,51.5
2018-03-07T03:16:18.679Z,51.5
2018-03-07T03:17:08.706Z,51.4
2018-03-07T03:17:58.518Z,51.4
2018-03-07T03:18:48.871Z,51.4
2018-03-07T03:19:38.874Z,51.4
2018-03-07T03:20:28.657Z,51.4
2018-03-07T03:21:18.980Z,51.4
2018-03-07T03:22:09.052Z,51.4
2018-03-07T03:22:58.840Z,51.4
2018-03-07T03:23:48.900Z,51.4
2018-03-07T03:24:38.965Z,51.4
2018-03-07T03:25:29.083Z,51.4
2018-03-07T03:26:18.797Z,51.4
2018-03-07T03:27:09.663Z,51.4
2018-03-07T03:27:58.877Z,51.4
2018-03-07T03:28:49.274Z,51.4
2018-03-07T03:29:39.300Z,51.4
2018-03-07T03:30:28.523Z,51.4
2018-03-07T03:31:19.199Z,51.4
2018-03-07T03:32:09.206Z,51.4
2018-03-07T03:32:59.569Z,51.3
2018-03-07T03:33:49.291Z,51.3
2018-03-07T03:34:39.633Z,51.3
2018-03-07T03:35:29.723Z,51.3
2018-03-07T03:36:19.121Z,51.3
2018-03-07T03:37:08.981Z,51.3
2018-03-07T03:37:59.621Z,51.3
2018-03-07T03:38:49.391Z,51.3
2018-03-07T03:39:39.466Z,51.3
2018-03-07T03:40:29.788Z,51.3
2018-03-07T03:41:19.146Z,51.3
2018-03-07T03:42:09.501Z,51.3
2018-03-07T03:43:00.214Z,51.3
2018-03-07T03:43:50.288Z,51.3
2018-03-07T03:44:40.593Z,51.3
2018-03-07T03:45:30.134Z,51.3
2018-03-07T03:46:20.166Z,51.3
2018-03-07T03:47:10.223Z,51.3
2018-03-07T03:48:00.851Z,51.3
2018-03-07T03:48:50.366Z,51.2
2018-03-07T03:49:39.936Z,51.2
2018-03-07T03:50:30.457Z,51.2
2018-03-07T03:51:21.044Z,51.2
2018-03-07T03:52:10.564Z,51.2
2018-03-07T03:53:01.183Z,51.2
2018-03-07T03:53:51.237Z,51.2
2018-03-07T03:54:41.243Z,51.2
2018-03-07T03:55:30.771Z,51.1
2018-03-07T03:56:20.848Z,51.2
2018-03-07T03:57:10.899Z,51.1
2018-03-07T03:58:01.253Z,51.1
2018-03-07T03:58:51.284Z,51.1
2018-03-07T03:59:41.323Z,51.1
2018-03-07T04:00:31.404Z,51.1
2018-03-07T04:01:21.237Z,51.1
2018-03-07T04:02:11.225Z,51.1
2018-03-07T04:03:00.796Z,51.1
2018-03-07T04:03:51.889Z,51.1
2018-03-07T04:04:41.686Z,51.1
2018-03-07T04:05:31.519Z,51.1
2018-03-07T04:06:22.115Z,51.1
2018-03-07T04:07:11.584Z,51.1
2018-03-07T04:08:01.343Z,51.1
2018-03-07T04:08:51.725Z,51
2018-03-07T04:09:42.296Z,51
2018-03-07T04:10:32.137Z,51
2018-03-07T04:11:22.444Z,50.9
2018-03-07T04:12:12.474Z,51
2018-03-07T04:13:02.265Z,50.9
2018-03-07T04:13:51.778Z,50.9
2018-03-07T04:14:42.672Z,50.9
2018-03-07T04:15:31.866Z,50.9
2018-03-07T04:16:22.267Z,50.9
2018-03-07T04:17:12.311Z,50.9
2018-03-07T04:18:02.871Z,50.9
2018-03-07T04:18:52.645Z,50.9
2018-03-07T04:19:42.708Z,50.9
2018-03-07T04:20:32.772Z,50.9
2018-03-07T04:21:22.834Z,50.9
2018-03-07T04:22:12.616Z,50.9
2018-03-07T04:23:02.949Z,50.9
2018-03-07T04:23:52.725Z,50.9
2018-03-07T04:24:42.799Z,50.9
2018-03-07T04:25:33.719Z,50.9
2018-03-07T04:26:23.186Z,50.9
2018-03-07T04:27:13.256Z,50.8
2018-03-07T04:28:03.621Z,50.8
2018-03-07T04:28:52.796Z,50.8
2018-03-07T04:29:43.419Z,50.8
2018-03-07T04:30:33.444Z,50.8
2018-03-07T04:31:23.769Z,50.8
2018-03-07T04:32:13.841Z,50.8
2018-03-07T04:33:03.636Z,50.8
2018-03-07T04:33:53.405Z,50.8
2018-03-07T04:34:43.213Z,50.8
2018-03-07T04:35:33.511Z,50.8
2018-03-07T04:36:23.304Z,50.8
2018-03-07T04:37:14.189Z,50.8
2018-03-07T04:38:03.987Z,50.8
2018-03-07T04:38:53.770Z,50.8
2018-03-07T04:39:43.823Z,50.8
2018-03-07T04:40:33.593Z,50.8
2018-03-07T04:41:24.185Z,50.8
2018-03-07T04:42:14.548Z,50.8
2018-03-07T04:43:04.070Z,50.7
2018-03-07T04:43:54.643Z,50.8
2018-03-07T04:44:44.447Z,50.7
2018-03-07T04:45:34.035Z,50.7
2018-03-07T04:46:24.560Z,50.7
2018-03-07T04:47:14.880Z,50.7
2018-03-07T04:48:04.711Z,50.7
2018-03-07T04:48:54.463Z,50.7
2018-03-07T04:49:44.758Z,50.6
2018-03-07T04:50:34.848Z,50.6
2018-03-07T04:51:25.200Z,50.7
2018-03-07T04:52:13.843Z,50.6
2018-03-07T04:53:03.717Z,50.6
2018-03-07T04:53:55.116Z,50.6
2018-03-07T04:54:44.577Z,50.6
2018-03-07T04:55:33.833Z,50.6
2018-03-07T04:56:24.425Z,50.6
2018-03-07T04:57:15.613Z,50.6
2018-03-07T04:58:05.649Z,50.6
2018-03-07T04:58:55.409Z,50.6
2018-03-07T04:59:45.189Z,50.6
2018-03-07T05:00:35.235Z,50.6
2018-03-07T05:01:25.915Z,50.6
2018-03-07T05:02:15.346Z,50.6
2018-03-07T05:03:05.991Z,50.6
2018-03-07T05:03:55.726Z,50.6
2018-03-07T05:04:46.082Z,50.6
2018-03-07T05:05:35.564Z,50.6
2018-03-07T05:06:25.647Z,50.5
2018-03-07T05:07:16.244Z,50.5
2018-03-07T05:08:06.066Z,50.5
2018-03-07T05:08:56.067Z,50.5
2018-03-07T05:09:46.165Z,50.5
2018-03-07T05:10:36.521Z,50.5
2018-03-07T05:11:26.266Z,50.5
2018-03-07T05:12:16.622Z,50.5
2018-03-07T05:13:05.805Z,50.4
2018-03-07T05:13:55.848Z,50.5
2018-03-07T05:14:46.502Z,50.4
2018-03-07T05:15:36.793Z,50.4
2018-03-07T05:16:26.880Z,50.4
2018-03-07T05:17:16.943Z,50.4
2018-03-07T05:18:06.794Z,50.4
2018-03-07T05:18:57.040Z,50.4
2018-03-07T05:19:47.085Z,50.4
2018-03-07T05:20:36.964Z,50.4
2018-03-07T05:21:27.267Z,50.4
2018-03-07T05:22:17.030Z,50.4
2018-03-07T05:23:07.352Z,50.4
2018-03-07T05:23:56.830Z,50.4
2018-03-07T05:24:47.215Z,50.4
2018-03-07T05:25:37.514Z,50.4
2018-03-07T05:26:26.447Z,50.3
2018-03-07T05:27:17.367Z,50.4
2018-03-07T05:28:07.137Z,50.4
2018-03-07T05:28:57.466Z,50.4
2018-03-07T05:29:47.502Z,50.4
2018-03-07T05:30:37.290Z,50.3
2018-03-07T05:31:27.666Z,50.3
2018-03-07T05:32:17.694Z,50.3
2018-03-07T05:33:07.997Z,50.3
2018-03-07T05:33:57.504Z,50.3
2018-03-07T05:34:48.141Z,50.3
2018-03-07T05:35:38.280Z,50.3
2018-03-07T05:36:28.241Z,50.3
2018-03-07T05:37:18.319Z,50.3
2018-03-07T05:38:08.391Z,50.3
2018-03-07T05:38:58.416Z,50.3
2018-03-07T05:39:48.216Z,50.3
2018-03-07T05:40:38.288Z,50.3
2018-03-07T05:41:28.310Z,50.3
2018-03-07T05:42:18.636Z,50.3
2018-03-07T05:43:08.223Z,50.3
2018-03-07T05:43:57.936Z,50.3
2018-03-07T05:44:48.253Z,50.2
2018-03-07T05:45:38.321Z,50.2
2018-03-07T05:46:28.923Z,50.2
2018-03-07T05:47:18.722Z,50.2
2018-03-07T05:48:08.772Z,50.2
2018-03-07T05:48:58.859Z,50.2
2018-03-07T05:49:48.606Z,50.2
2018-03-07T05:50:38.673Z,50.2
2018-03-07T05:51:29.017Z,50.1
2018-03-07T05:52:19.071Z,50.2
2018-03-07T05:53:08.885Z,50.2
2018-03-07T05:53:59.442Z,50.1
2018-03-07T05:54:48.963Z,50.1
2018-03-07T05:55:38.718Z,50.1
2018-03-07T05:56:29.362Z,50.1
2018-03-07T05:57:18.899Z,50.1
2018-03-07T05:58:09.706Z,50.1
2018-03-07T05:58:59.776Z,50.1
2018-03-07T05:59:49.300Z,50.1
2018-03-07T06:00:39.613Z,50.1
2018-03-07T06:01:29.478Z,50.1
2018-03-07T06:02:19.205Z,50.1
2018-03-07T06:03:10.094Z,50.1
2018-03-07T06:03:59.843Z,50.1
2018-03-07T06:04:49.630Z,50.1
2018-03-07T06:05:39.700Z,50.1
2018-03-07T06:06:29.735Z,50.1
2018-03-07T06:07:19.543Z,50
2018-03-07T06:08:09.859Z,50
2018-03-07T06:09:00.196Z,50
2018-03-07T06:09:50.233Z,50
2018-03-07T06:10:39.749Z,50
2018-03-07T06:11:30.092Z,50
2018-03-07T06:12:20.172Z,50
2018-03-07T06:13:09.626Z,50
2018-03-07T06:14:00.826Z,50
2018-03-07T06:14:50.299Z,50
2018-03-07T06:15:40.925Z,50
2018-03-07T06:16:30.709Z,49.9
2018-03-07T06:17:20.826Z,49.9
2018-03-07T06:18:11.084Z,49.9
2018-03-07T06:19:00.304Z,49.9
2018-03-07T06:19:50.931Z,49.9
2018-03-07T06:20:41.003Z,49.9
2018-03-07T06:21:30.614Z,49.9
2018-03-07T06:22:20.372Z,49.9
2018-03-07T06:23:11.006Z,49.9
2018-03-07T06:24:01.032Z,49.9
2018-03-07T06:24:50.488Z,49.9
2018-03-07T06:25:40.868Z,49.9
2018-03-07T06:26:31.161Z,49.9
2018-03-07T06:27:21.201Z,49.9
2018-03-07T06:28:11.009Z,49.9
2018-03-07T06:29:01.850Z,49.9
2018-03-07T06:29:51.353Z,49.9
2018-03-07T06:30:41.400Z,49.9
2018-03-07T06:31:31.541Z,49.9
2018-03-07T06:32:21.806Z,49.8
2018-03-07T06:33:12.145Z,49.9
2018-03-07T06:34:01.921Z,49.8
2018-03-07T06:34:51.690Z,49.8
2018-03-07T06:35:41.785Z,49.8
2018-03-07T06:36:32.152Z,49.8
2018-03-07T06:37:21.845Z,49.8
2018-03-07T06:38:11.623Z,49.8
2018-03-07T06:39:02.276Z,49.8
2018-03-07T06:39:50.695Z,49.8
2018-03-07T06:40:42.405Z,49.8
2018-03-07T06:41:31.622Z,49.8
2018-03-07T06:42:21.452Z,49.8
2018-03-07T06:43:11.363Z,49.8
2018-03-07T06:44:01.170Z,49.8
2018-03-07T06:44:51.853Z,49.8
2018-03-07T06:45:40.127Z,49.8
2018-03-07T06:46:31.570Z,49.7
2018-03-07T06:47:21.803Z,49.7
2018-03-07T06:48:11.824Z,49.7
2018-03-07T06:49:01.712Z,49.7
2018-03-07T06:49:51.575Z,49.7
2018-03-07T06:50:42.030Z,49.7
2018-03-07T06:51:32.086Z,49.7
2018-03-07T06:52:21.852Z,49.7
2018-03-07T06:53:13.574Z,49.7
2018-03-07T06:54:02.274Z,49.7
2018-03-07T06:54:52.512Z,49.7
2018-03-07T06:55:43.121Z,49.6
2018-03-07T06:56:31.932Z,49.6
2018-03-07T06:57:22.177Z,49.6
2018-03-07T06:58:13.322Z,49.6
2018-03-07T06:59:02.565Z,49.6
2018-03-07T06:59:53.968Z,49.6
2018-03-07T07:00:43.746Z,49.6
2018-03-07T07:01:33.821Z,49.6
2018-03-07T07:02:23.879Z,49.6
2018-03-07T07:03:14.214Z,49.6
2018-03-07T07:04:03.794Z,49.6
2018-03-07T07:04:53.461Z,49.6
2018-03-07T07:05:44.360Z,49.6
2018-03-07T07:06:34.451Z,49.6
2018-03-07T07:07:23.957Z,49.6
2018-03-07T07:08:14.029Z,49.6
2018-03-07T07:09:03.793Z,49.6
2018-03-07T07:09:54.116Z,49.6
2018-03-07T07:10:44.431Z,49.6
2018-03-07T07:11:34.634Z,49.5
2018-03-07T07:12:24.871Z,49.5
2018-03-07T07:13:14.360Z,49.5
2018-03-07T07:14:04.661Z,49.5
2018-03-07T07:14:53.129Z,49.5
2018-03-07T07:15:44.075Z,49.5
2018-03-07T07:16:33.529Z,49.5
2018-03-07T07:17:23.398Z,49.5
2018-03-07T07:18:14.435Z,49.5
2018-03-07T07:19:03.508Z,49.5
2018-03-07T07:19:53.976Z,49.5
2018-03-07T07:20:44.278Z,49.5
2018-03-07T07:21:34.977Z,49.4
2018-03-07T07:22:24.428Z,49.4
2018-03-07T07:23:14.869Z,49.4
2018-03-07T07:24:04.525Z,49.4
2018-03-07T07:24:54.420Z,49.4
2018-03-07T07:25:44.381Z,49.4
2018-03-07T07:26:35.559Z,49.4
2018-03-07T07:27:25.468Z,49.4
2018-03-07T07:28:15.975Z,49.4
2018-03-07T07:29:06.003Z,49.4
2018-03-07T07:29:55.505Z,49.4
2018-03-07T07:30:45.842Z,49.4
2018-03-07T07:31:35.878Z,49.4
2018-03-07T07:32:25.463Z,49.4
2018-03-07T07:33:14.958Z,49.4
2018-03-07T07:34:05.359Z,49.3
2018-03-07T07:34:55.114Z,49.4
2018-03-07T07:35:45.426Z,49.4
2018-03-07T07:36:35.792Z,49.3
2018-03-07T07:37:25.341Z,49.3
2018-03-07T07:38:16.446Z,49.4
2018-03-07T07:39:05.600Z,49.3
2018-03-07T07:39:55.964Z,49.3
2018-03-07T07:40:45.502Z,49.3
2018-03-07T07:41:36.926Z,49.3
2018-03-07T07:42:26.101Z,49.3
2018-03-07T07:43:17.194Z,49.3
2018-03-07T07:44:07.111Z,49.3
2018-03-07T07:44:56.834Z,49.3
2018-03-07T07:45:46.912Z,49.3
2018-03-07T07:46:36.680Z,49.3
2018-03-07T07:47:27.504Z,49.3
2018-03-07T07:48:17.347Z,49.3
2018-03-07T07:49:06.886Z,49.3
2018-03-07T07:49:57.177Z,49.3
2018-03-07T07:50:47.414Z,49.2
2018-03-07T07:51:37.304Z,49.2
2018-03-07T07:52:27.084Z,49.2
2018-03-07T07:53:17.449Z,49.2
2018-03-07T07:55:25.753Z,49.2
2018-03-07T07:55:35.898Z,49.2
2018-03-07T07:56:26.363Z,49.2
2018-03-07T07:57:16.671Z,49.1
2018-03-07T07:58:06.740Z,49.1
2018-03-07T07:58:56.785Z,49.1
2018-03-07T07:59:47.430Z,49.1
2018-03-07T08:00:37.466Z,49.1
2018-03-07T08:01:26.238Z,49.1
2018-03-07T08:02:15.499Z,49.1
2018-03-07T08:03:07.425Z,49.1
2018-03-07T08:03:56.995Z,49.1
2018-03-07T08:05:10.346Z,49.1
2018-03-07T08:06:01.224Z,49.1
2018-03-07T08:06:51.415Z,49.1
2018-03-07T08:07:40.025Z,49.1
2018-03-07T08:08:43.671Z,49.1
2018-03-07T08:09:21.557Z,49.1
2018-03-07T08:10:11.118Z,49.1
2018-03-07T08:11:00.932Z,49.1
2018-03-07T08:12:32.698Z,49.1
2018-03-07T08:13:32.533Z,49
2018-03-07T08:14:22.838Z,49
2018-03-07T08:15:12.059Z,49
2018-03-07T08:16:53.715Z,49
2018-03-07T08:17:43.275Z,49
2018-03-07T08:18:33.314Z,49
2018-03-07T08:19:23.962Z,48.9
2018-03-07T08:20:14.076Z,48.9
2018-03-07T08:21:03.214Z,48.9
2018-03-07T08:21:53.860Z,48.9
2018-03-07T08:22:44.205Z,48.9
2018-03-07T08:23:33.975Z,48.9
2018-03-07T08:24:24.307Z,48.9
2018-03-07T08:25:14.082Z,48.9
2018-03-07T08:26:04.432Z,48.9
2018-03-07T08:26:54.519Z,48.9
2018-03-07T08:27:44.687Z,48.9
2018-03-07T08:28:34.642Z,48.9
2018-03-07T08:29:24.679Z,48.9
2018-03-07T08:30:14.734Z,48.9
2018-03-07T08:31:04.792Z,48.9
2018-03-07T08:31:54.537Z,48.9
2018-03-07T08:32:44.362Z,48.9
2018-03-07T08:33:34.960Z,48.9
2018-03-07T08:34:24.742Z,48.9
2018-03-07T08:35:15.077Z,48.9
2018-03-07T08:36:04.880Z,48.9
2018-03-07T08:36:54.887Z,48.8
2018-03-07T08:37:44.986Z,48.8
2018-03-07T08:38:35.023Z,48.8
2018-03-07T08:39:25.089Z,48.8
2018-03-07T08:40:15.418Z,48.8
2018-03-07T08:41:04.923Z,48.8
2018-03-07T08:41:55.546Z,48.8
2018-03-07T08:42:45.318Z,48.8
2018-03-07T08:43:35.654Z,48.8
2018-03-07T08:44:25.432Z,48.8
2018-03-07T08:45:15.463Z,48.8
2018-03-07T08:46:06.236Z,48.8
2018-03-07T08:46:55.587Z,48.8
2018-03-07T08:47:45.975Z,48.8
2018-03-07T08:48:35.986Z,48.7
2018-03-07T08:49:26.035Z,48.7
2018-03-07T08:50:16.123Z,48.7
2018-03-07T08:51:06.163Z,48.7
2018-03-07T08:51:56.223Z,48.7
2018-03-07T08:52:45.989Z,48.7
2018-03-07T08:53:36.053Z,48.7
2018-03-07T08:54:25.367Z,48.7
2018-03-07T08:55:16.201Z,48.7
2018-03-07T08:56:06.246Z,48.6
2018-03-07T08:56:55.987Z,48.5
2018-03-07T08:57:46.609Z,48.5
2018-03-07T08:58:36.414Z,48.5
2018-03-07T08:59:25.018Z,48.6
2018-03-07T09:00:16.510Z,48.6
2018-03-07T09:01:06.300Z,48.6
2018-03-07T09:01:55.868Z,48.8
2018-03-07T09:02:45.748Z,48.8
2018-03-07T09:03:35.315Z,48.9
2018-03-07T09:04:26.444Z,48.9
2018-03-07T09:05:16.889Z,49
2018-03-07T09:06:06.087Z,49.1
2018-03-07T09:06:57.303Z,49.1
2018-03-07T09:07:46.484Z,49.2
2018-03-07T09:08:37.105Z,49.3
2018-03-07T09:09:27.150Z,49.4
2018-03-07T09:10:17.753Z,49.4
2018-03-07T09:11:07.555Z,49.4
2018-03-07T09:11:57.324Z,49.6
2018-03-07T09:12:47.124Z,49.8
2018-03-07T09:13:37.752Z,49.8
2018-03-07T09:14:27.497Z,49.9
2018-03-07T09:15:17.860Z,50
2018-03-07T09:16:07.374Z,50.1
2018-03-07T09:16:57.967Z,50.1
2018-03-07T09:17:48.026Z,50.2
2018-03-07T09:18:37.805Z,50.3
2018-03-07T09:19:27.278Z,50.3
2018-03-07T09:20:17.958Z,50.4
2018-03-07T09:21:08.303Z,50.6
2018-03-07T09:21:58.315Z,50.7
2018-03-07T09:22:48.361Z,50.8
2018-03-07T09:23:37.904Z,50.9
2018-03-07T09:24:28.284Z,51
2018-03-07T09:25:17.707Z,51.1
2018-03-07T09:26:08.359Z,51.3
2018-03-07T09:26:58.697Z,51.3
2018-03-07T09:27:48.477Z,51.4
2018-03-07T09:28:38.556Z,51.6
2018-03-07T09:29:28.546Z,51.7
2018-03-07T09:30:18.363Z,51.8
2018-03-07T09:31:08.375Z,51.8
2018-03-07T09:32:49.113Z,52.1
2018-03-07T09:33:38.294Z,52.2
2018-03-07T09:34:28.750Z,52.3
2018-03-07T09:35:19.248Z,52.3
2018-03-07T09:36:08.275Z,52.4
2018-03-07T09:36:58.805Z,52.5
2018-03-07T09:37:49.438Z,52.7
2018-03-07T09:38:39.207Z,52.8
2018-03-07T09:39:29.555Z,52.8
2018-03-07T09:40:19.600Z,52.9
2018-03-07T09:41:09.388Z,52.9
2018-03-07T09:41:59.459Z,53
2018-03-07T09:42:49.776Z,53.2
2018-03-07T09:43:39.843Z,53.3
2018-03-07T09:44:29.648Z,53.3
2018-03-07T09:45:19.412Z,53.4
2018-03-07T09:46:09.957Z,53.4
2018-03-07T09:46:59.755Z,53.5
2018-03-07T09:47:49.615Z,53.6
2018-03-07T09:48:39.672Z,53.7
2018-03-07T09:49:29.480Z,53.8
2018-03-07T09:50:19.323Z,53.8
2018-03-07T09:51:09.783Z,53.8
2018-03-07T09:51:58.868Z,53.9
2018-03-07T09:52:48.731Z,53.9
2018-03-07T09:53:38.694Z,54
2018-03-07T09:54:29.932Z,54.1
2018-03-07T09:55:19.020Z,54.2
2018-03-07T09:56:09.910Z,54.3
2018-03-07T09:56:59.364Z,54.4
2018-03-07T09:57:49.222Z,54.4
2018-03-07T09:58:40.219Z,54.6
2018-03-07T09:59:30.018Z,54.6
2018-03-07T10:00:19.089Z,54.8
2018-03-07T10:01:09.362Z,54.9
2018-03-07T10:02:00.104Z,54.9
2018-03-07T10:02:49.552Z,55
2018-03-07T10:03:39.682Z,55.2
2018-03-07T10:04:29.457Z,55.3
2018-03-07T10:05:20.316Z,55.3
2018-03-07T10:06:10.117Z,55.4
2018-03-07T10:07:00.907Z,55.4
2018-03-07T10:07:50.773Z,55.6
2018-03-07T10:08:40.810Z,55.6
2018-03-07T10:09:31.159Z,55.8
2018-03-07T10:10:20.706Z,55.8
2018-03-07T10:11:10.726Z,55.9
2018-03-07T10:12:01.573Z,56
2018-03-07T10:12:50.857Z,56.1
2018-03-07T10:13:41.438Z,56.3
2018-03-07T10:14:31.006Z,56.3
2018-03-07T10:15:21.359Z,56.4
2018-03-07T10:17:44.871Z,56.5
2018-03-07T10:17:56.516Z,56.7
2018-03-07T10:18:46.135Z,56.8
2018-03-07T10:19:36.541Z,56.8
2018-03-07T10:20:26.280Z,56.9
2018-03-07T10:21:16.355Z,56.9
2018-03-07T10:22:06.876Z,57.1
2018-03-07T10:22:57.325Z,57.2
2018-03-07T10:23:47.275Z,57.3
2018-03-07T10:24:36.781Z,57.4
2018-03-07T10:25:27.125Z,57.4
2018-03-07T10:26:17.501Z,57.5
2018-03-07T10:27:07.241Z,57.6
2018-03-07T10:27:57.596Z,57.7
2018-03-07T10:28:47.140Z,57.8
2018-03-07T10:29:37.697Z,57.9
2018-03-07T10:30:26.737Z,58.1
2018-03-07T10:31:17.840Z,58.1
2018-03-07T10:32:07.570Z,58.3
2018-03-07T10:32:57.637Z,58.3
2018-03-07T10:33:47.510Z,58.4
2018-03-07T10:34:38.068Z,58.4
2018-03-07T10:35:27.850Z,58.5
2018-03-07T10:36:17.590Z,58.6
2018-03-07T10:37:07.656Z,58.7
2018-03-07T10:37:57.807Z,58.8
2018-03-07T10:38:48.057Z,58.9
2018-03-07T10:39:38.273Z,59
2018-03-07T10:40:28.472Z,59.1
2018-03-07T10:41:17.952Z,59.2
2018-03-07T10:42:08.577Z,59.3
2018-03-07T10:42:58.623Z,59.4
2018-03-07T10:43:48.101Z,59.4
2018-03-07T10:44:38.771Z,59.5
2018-03-07T10:45:28.804Z,59.6
2018-03-07T10:46:18.864Z,59.7
2018-03-07T10:47:08.864Z,59.8
2018-03-07T10:47:58.720Z,59.9
2018-03-07T10:48:49.044Z,59.9
2018-03-07T10:49:39.124Z,60
2018-03-07T10:50:28.314Z,60.1
2018-03-07T10:51:18.964Z,60.1
2018-03-07T10:52:08.136Z,60.3
2018-03-07T10:52:57.902Z,60.3
2018-03-07T10:53:49.437Z,60.4
2018-03-07T10:54:38.685Z,60.5
2018-03-07T10:55:28.764Z,60.6
2018-03-07T10:56:18.437Z,60.6
2018-03-07T10:57:08.483Z,60.8
2018-03-07T10:57:58.639Z,60.9
2018-03-07T10:58:49.760Z,60.9
2018-03-07T10:59:39.793Z,61.1
2018-03-07T11:00:29.851Z,61.2
2018-03-07T11:01:19.632Z,61.3
2018-03-07T11:02:09.513Z,61.3
2018-03-07T11:02:59.543Z,61.4
2018-03-07T11:03:49.819Z,61.5
2018-03-07T11:04:40.178Z,61.6
2018-03-07T11:05:30.227Z,61.6
2018-03-07T11:06:20.008Z,61.8
2018-03-07T11:07:10.328Z,61.9
2018-03-07T11:08:00.415Z,61.9
2018-03-07T11:08:50.475Z,61.9
2018-03-07T11:09:39.622Z,62
2018-03-07T11:10:33.613Z,62
2018-03-07T11:11:20.309Z,62.1
2018-03-07T11:12:10.666Z,62.1
2018-03-07T11:13:00.472Z,62.1
2018-03-07T11:13:50.549Z,62.1
2018-03-07T11:14:40.835Z,62.1
2018-03-07T11:15:30.368Z,62.1
2018-03-07T11:16:20.692Z,62.1
2018-03-07T11:17:11.030Z,62.2
2018-03-07T11:18:00.508Z,62.2
2018-03-07T11:18:50.410Z,62.2
2018-03-07T11:19:40.647Z,62.1
2018-03-07T11:20:29.989Z,62.2
2018-03-07T11:21:18.407Z,62.2
2018-03-07T11:22:08.467Z,62.1
2018-03-07T11:22:58.689Z,62.2
2018-03-07T11:23:48.764Z,62.1
2018-03-07T11:24:39.122Z,62.1
2018-03-07T11:26:32.914Z,62.1
2018-03-07T11:26:43.012Z,62.1